Time;durP1;ratioP1;P1;durP2;ratioP2;P2;SDS_P1;SDS_P2;PMS_P1;PMS_P2;Temp;Humidity;BMP_temperature;BMP_pressure;BME280_temperature;BME280_humidity;BME280_pressure;Samples;Min_cycle;Max_cycle;Signal;HPM_P1;HPM_P2
2023/12/13 00:01:45;;;;;;;3.65;2.40;;;;;;;3.70;100.00;99593.19;5031414;28;20871;-68
2023/12/13 00:04:14;;;;;;;2.75;1.20;;;;;;;3.82;100.00;99591.69;5029604;28;20221;-68
2023/12/13 00:06:42;;;;;;;3.22;3.03;;;;;;;3.79;100.00;99588.56;5026243;28;20197;-66
2023/12/13 00:09:12;;;;;;;2.47;2.38;;;;;;;3.77;100.00;99590.59;5024702;28;20190;-66
2023/12/13 00:11:41;;;;;;;2.55;2.45;;;;;;;3.78;100.00;99582.38;5026088;28;20194;-65
2023/12/13 00:14:11;;;;;;;3.45;1.27;;;;;;;3.78;100.00;99587.72;5028678;28;20221;-67
2023/12/13 00:16:40;;;;;;;3.60;2.30;;;;;;;3.82;100.00;99583.66;5030341;28;20298;-64
2023/12/13 00:19:09;;;;;;;3.42;1.27;;;;;;;3.93;100.00;99585.00;5029538;28;20197;-67
2023/12/13 00:21:38;;;;;;;1.77;1.17;;;;;;;3.92;100.00;99589.50;5031730;28;20310;-67
2023/12/13 00:24:08;;;;;;;3.05;2.85;;;;;;;4.00;100.00;99585.06;5029878;28;20244;-67
2023/12/13 00:26:37;;;;;;;4.13;3.75;;;;;;;4.09;100.00;99594.63;5032517;28;20189;-69
2023/12/13 00:29:06;;;;;;;9.32;5.13;;;;;;;4.05;100.00;99590.66;5027091;28;20665;-67
2023/12/13 00:31:36;;;;;;;2.20;1.73;;;;;;;3.99;100.00;99599.47;5025418;28;20189;-68
2023/12/13 00:34:05;;;;;;;3.95;3.30;;;;;;;3.96;100.00;99594.50;5026298;28;20312;-66
2023/12/13 00:36:34;;;;;;;6.35;2.13;;;;;;;4.01;100.00;99578.69;5027338;28;20666;-66
2023/12/13 00:39:03;;;;;;;4.63;2.00;;;;;;;4.02;100.00;99583.84;5028709;28;20542;-66
2023/12/13 00:41:32;;;;;;;4.30;2.65;;;;;;;3.93;100.00;99575.13;5032623;28;20201;-65
2023/12/13 00:44:01;;;;;;;2.60;2.40;;;;;;;3.99;100.00;99578.03;5024809;28;20198;-67
2023/12/13 00:46:29;;;;;;;11.23;5.32;;;;;;;4.07;100.00;99565.34;5031761;28;20270;-67
2023/12/13 00:48:59;;;;;;;10.30;3.60;;;;;;;4.06;100.00;99569.06;5034400;28;20214;-69
2023/12/13 00:51:28;;;;;;;6.82;2.72;;;;;;;4.00;100.00;99558.28;5031767;28;20200;-66
2023/12/13 00:53:57;;;;;;;4.53;2.47;;;;;;;3.98;100.00;99560.31;5031175;28;20248;-64
2023/12/13 00:56:25;;;;;;;1.75;1.35;;;;;;;3.97;100.00;99562.16;5031056;28;20573;-67
2023/12/13 00:58:54;;;;;;;8.55;3.67;;;;;;;3.94;100.00;99558.03;5026531;28;20212;-66
2023/12/13 01:01:23;;;;;;;3.78;1.33;;;;;;;3.87;100.00;99549.09;5026232;28;20209;-66
2023/12/13 01:03:52;;;;;;;2.88;2.50;;;;;;;3.94;100.00;99555.38;5040952;28;20221;-68
2023/12/13 01:06:22;;;;;;;4.03;2.65;;;;;;;3.95;100.00;99556.19;5022494;28;20252;-68
2023/12/13 01:08:51;;;;;;;4.00;3.13;;;;;;;3.98;100.00;99554.97;5022957;28;20193;-66
2023/12/13 01:11:24;;;;;;;6.60;3.25;;;;;;;4.06;100.00;99568.25;5023813;28;20206;-67
2023/12/13 01:13:53;;;;;;;1.98;1.77;;;;;;;4.16;100.00;99558.03;5031856;28;20731;-67
2023/12/13 01:16:21;;;;;;;3.28;2.97;;;;;;;4.19;100.00;99557.63;5038302;28;20241;-67
2023/12/13 01:18:50;;;;;;;6.07;3.28;;;;;;;4.18;100.00;99545.25;5031116;28;20213;-68
2023/12/13 01:21:19;;;;;;;6.13;4.13;;;;;;;4.14;100.00;99544.00;5027455;28;20189;-67
2023/12/13 01:23:49;;;;;;;6.22;3.58;;;;;;;4.26;100.00;99553.19;5028756;28;20562;-65
2023/12/13 01:26:18;;;;;;;3.00;2.80;;;;;;;4.14;100.00;99544.00;5024868;28;20193;-68
2023/12/13 01:28:46;;;;;;;2.15;1.98;;;;;;;4.21;100.00;99545.69;5029077;28;20681;-66
2023/12/13 01:31:15;;;;;;;5.30;3.70;;;;;;;4.18;100.00;99545.25;5033749;28;20189;-66
2023/12/13 01:33:44;;;;;;;4.40;3.42;;;;;;;4.26;100.00;99537.91;5033646;28;20211;-67
2023/12/13 01:36:13;;;;;;;2.65;1.85;;;;;;;4.26;100.00;99526.41;5027532;28;20200;-66
2023/12/13 01:38:42;;;;;;;4.13;2.80;;;;;;;4.23;100.00;99524.09;5026552;28;20687;-68
2023/12/13 01:41:11;;;;;;;6.43;2.97;;;;;;;4.22;100.00;99519.75;5025793;28;20678;-67
2023/12/13 01:43:42;;;;;;;6.65;3.25;;;;;;;4.19;100.00;99526.34;5026870;28;20185;-67
2023/12/13 01:46:13;;;;;;;4.20;3.88;;;;;;;4.25;100.00;99519.38;5031463;28;20304;-66
2023/12/13 01:48:42;;;;;;;5.75;3.35;;;;;;;4.27;100.00;99517.31;5024557;28;20574;-67
2023/12/13 01:51:12;;;;;;;6.00;3.25;;;;;;;4.32;100.00;99513.03;5030009;28;20698;-66
2023/12/13 01:53:42;;;;;;;2.35;2.15;;;;;;;4.30;100.00;99507.06;5022830;28;20213;-68
2023/12/13 01:56:13;;;;;;;5.25;4.63;;;;;;;4.33;100.00;99501.31;5030263;28;20194;-67
2023/12/13 01:58:42;;;;;;;3.28;2.55;;;;;;;4.34;100.00;99496.78;5024177;28;20221;-67
2023/12/13 02:01:11;;;;;;;5.45;3.25;;;;;;;4.30;100.00;99503.56;5026468;28;20197;-66
2023/12/13 02:03:43;;;;;;;4.38;2.15;;;;;;;4.37;100.00;99499.06;5027871;28;20673;-68
2023/12/13 02:06:23;;;;;;;4.53;2.85;;;;;;;4.45;100.00;99498.94;5029571;28;20208;-66
2023/12/13 02:08:52;;;;;;;1.05;0.95;;;;;;;4.54;100.00;99497.75;5022165;28;20189;-68
2023/12/13 02:11:22;;;;;;;5.95;5.35;;;;;;;4.64;100.00;99497.38;5029077;28;20272;-67
2023/12/13 02:13:53;;;;;;;4.55;4.15;;;;;;;4.58;100.00;99498.16;5027931;28;20204;-68
2023/12/13 02:16:22;;;;;;;3.63;2.08;;;;;;;4.68;100.00;99496.78;5014806;28;20190;-67
2023/12/13 02:18:51;;;;;;;11.45;3.45;;;;;;;4.72;100.00;99494.53;5023273;28;20788;-67
2023/12/13 02:21:20;;;;;;;5.07;4.50;;;;;;;4.69;100.00;99493.09;5040438;28;20196;-68
2023/12/13 02:23:52;;;;;;;16.23;3.05;;;;;;;4.72;100.00;99483.81;5029747;28;20624;-68
2023/12/13 02:26:21;;;;;;;4.15;2.15;;;;;;;4.72;100.00;99484.66;5030716;28;20600;-66
2023/12/13 02:28:50;;;;;;;5.10;2.95;;;;;;;4.81;100.00;99479.94;5033868;28;20243;-68
2023/12/13 02:31:20;;;;;;;4.43;2.08;;;;;;;4.89;100.00;99484.31;5025215;28;20223;-68
2023/12/13 02:33:49;;;;;;;5.28;4.80;;;;;;;4.88;100.00;99477.28;5031998;28;20193;-67
2023/12/13 02:36:18;;;;;;;3.97;3.70;;;;;;;4.92;100.00;99474.00;5033751;28;20206;-67
2023/12/13 02:38:46;;;;;;;5.20;3.95;;;;;;;4.84;100.00;99463.47;5033690;28;20236;-67
2023/12/13 02:41:17;;;;;;;3.10;1.92;;;;;;;4.79;100.00;99464.03;5034165;28;20193;-69
2023/12/13 02:43:45;;;;;;;8.88;1.63;;;;;;;4.85;100.00;99459.75;5027858;28;20673;-67
2023/12/13 02:46:14;;;;;;;3.13;1.33;;;;;;;4.92;100.00;99455.25;5026915;28;20200;-66
2023/12/13 02:48:43;;;;;;;3.95;1.85;;;;;;;4.81;100.00;99448.59;5022526;28;20657;-67
2023/12/13 02:51:12;;;;;;;3.92;3.38;;;;;;;4.81;100.00;99440.56;5024286;28;20197;-66
2023/12/13 02:53:41;;;;;;;3.10;2.63;;;;;;;4.78;100.00;99440.97;5023313;28;20575;-67
2023/12/13 02:56:10;;;;;;;3.90;3.50;;;;;;;4.80;100.00;99444.28;5031995;28;20295;-63
2023/12/13 02:58:39;;;;;;;3.13;2.92;;;;;;;4.81;100.00;99439.75;5023317;28;20234;-67
2023/12/13 03:01:08;;;;;;;1.10;0.90;;;;;;;4.69;100.00;99447.53;5025027;28;20197;-67
2023/12/13 03:03:38;;;;;;;2.53;2.40;;;;;;;4.75;100.00;99446.72;5032739;28;20220;-67
2023/12/13 03:06:08;;;;;;;5.88;2.88;;;;;;;4.81;100.00;99445.94;5033204;28;20220;-66
2023/12/13 03:08:37;;;;;;;5.80;2.97;;;;;;;4.78;100.00;99442.81;5026071;28;20181;-67
2023/12/13 03:11:06;;;;;;;3.55;3.13;;;;;;;4.80;100.00;99430.88;5035257;28;20205;-66
2023/12/13 03:13:36;;;;;;;7.93;3.45;;;;;;;4.79;100.00;99431.88;5031296;28;20204;-67
2023/12/13 03:16:08;;;;;;;3.38;1.52;;;;;;;4.80;100.00;99433.56;5029743;28;20220;-69
2023/12/13 03:18:37;;;;;;;3.60;3.38;;;;;;;4.79;100.00;99431.88;5021420;28;20224;-66
2023/12/13 03:21:06;;;;;;;5.18;1.70;;;;;;;4.77;100.00;99433.97;5032235;28;20220;-68
2023/12/13 03:23:35;;;;;;;2.85;2.55;;;;;;;4.79;100.00;99431.88;5033973;28;20207;-67
2023/12/13 03:26:04;;;;;;;4.18;3.30;;;;;;;4.77;100.00;99433.13;5037697;28;20205;-67
2023/12/13 03:28:33;;;;;;;13.00;3.28;;;;;;;4.78;100.00;99429.44;5027104;28;20224;-66
2023/12/13 03:31:06;;;;;;;6.60;6.03;;;;;;;4.78;100.00;99429.44;5033381;28;20189;-65
2023/12/13 03:33:36;;;;;;;3.92;3.42;;;;;;;4.88;100.00;99429.06;5025162;28;20268;-67
2023/12/13 03:36:13;;;;;;;2.70;2.60;;;;;;;4.88;100.00;99429.88;5033512;28;20276;-66
2023/12/13 03:38:43;;;;;;;5.65;3.28;;;;;;;5.02;100.00;99422.69;5034960;28;20220;-67
2023/12/13 03:41:12;;;;;;;3.03;1.98;;;;;;;4.99;100.00;99415.88;5026875;28;20201;-66
2023/12/13 03:43:41;;;;;;;6.80;3.05;;;;;;;5.01;100.00;99413.00;5031119;28;20387;-67
2023/12/13 03:46:10;;;;;;;9.07;5.03;;;;;;;4.97;100.00;99399.19;5024847;28;20213;-67
2023/12/13 03:48:40;;;;;;;2.78;1.90;;;;;;;4.98;100.00;99402.69;5023966;28;20190;-67
2023/12/13 03:51:09;;;;;;;3.03;2.83;;;;;;;4.81;100.00;99397.69;5029726;28;20194;-67
2023/12/13 03:53:39;;;;;;;6.35;4.00;;;;;;;4.85;100.00;99394.59;5028990;28;20209;-66
2023/12/13 03:56:08;;;;;;;5.18;4.15;;;;;;;4.82;100.00;99382.44;5028767;28;20259;-66
2023/12/13 03:58:38;;;;;;;4.07;3.10;;;;;;;4.77;100.00;99380.38;5021401;28;20209;-66
2023/12/13 04:01:08;;;;;;;4.20;3.90;;;;;;;4.85;100.00;99378.50;5031791;28;20228;-68
2023/12/13 04:03:38;;;;;;;2.25;2.10;;;;;;;4.85;100.00;99376.66;5037562;28;20190;-67
2023/12/13 04:06:08;;;;;;;5.80;3.80;;;;;;;4.93;100.00;99378.34;5042367;28;20641;-67
2023/12/13 04:08:37;;;;;;;3.00;2.80;;;;;;;4.99;100.00;99377.50;5022386;28;20278;-66
2023/12/13 04:11:06;;;;;;;3.67;3.15;;;;;;;5.01;100.00;99375.47;5026595;28;20212;-66
2023/12/13 04:13:35;;;;;;;6.03;5.50;;;;;;;4.99;100.00;99374.84;5020245;28;20194;-66
2023/12/13 04:16:04;;;;;;;6.45;4.00;;;;;;;5.09;100.00;99381.47;5019252;28;20298;-67
2023/12/13 04:18:32;;;;;;;5.88;4.20;;;;;;;5.07;100.00;99382.72;5027185;28;20601;-67
2023/12/13 04:21:03;;;;;;;3.58;3.28;;;;;;;5.17;100.00;99380.47;5025033;28;20201;-67
2023/12/13 04:23:32;;;;;;;2.97;2.58;;;;;;;5.22;100.00;99383.34;5026035;28;20209;-67
2023/12/13 04:26:02;;;;;;;4.40;3.05;;;;;;;5.20;100.00;99383.56;5029728;28;20297;-67
2023/12/13 04:28:31;;;;;;;5.28;4.88;;;;;;;5.23;100.00;99384.97;5028684;28;20255;-67
2023/12/13 04:31:00;;;;;;;2.60;2.40;;;;;;;5.23;100.00;99384.97;5027361;28;20759;-67
2023/12/13 04:33:31;;;;;;;3.63;3.33;;;;;;;5.31;100.00;99387.50;5033022;28;20226;-67
2023/12/13 04:36:03;;;;;;;5.15;3.63;;;;;;;5.41;100.00;99387.09;5029709;28;20241;-66
2023/12/13 04:38:33;;;;;;;5.40;4.05;;;;;;;5.45;100.00;99381.09;5025640;28;20202;-67
2023/12/13 04:41:03;;;;;;;4.88;4.20;;;;;;;5.44;100.00;99374.09;5027945;28;20301;-67
2023/12/13 04:43:31;;;;;;;2.58;2.05;;;;;;;5.52;100.00;99379.22;5037980;28;20201;-67
2023/12/13 04:46:00;;;;;;;2.60;2.40;;;;;;;5.55;100.00;99375.31;5032238;28;20245;-67
2023/12/13 04:48:29;;;;;;;4.50;3.85;;;;;;;5.47;100.00;99370.97;5032107;28;20182;-66
2023/12/13 04:50:58;;;;;;;3.75;2.60;;;;;;;5.47;100.00;99381.72;5029193;28;20205;-67
2023/12/13 04:53:28;;;;;;;5.65;4.47;;;;;;;5.49;100.00;99374.28;5026424;28;20201;-68
2023/12/13 04:55:56;;;;;;;4.03;3.72;;;;;;;5.49;100.00;99368.94;5038545;28;20212;-66
2023/12/13 04:58:26;;;;;;;1.70;1.60;;;;;;;5.52;100.00;99370.34;5033047;28;20209;-68
2023/12/13 05:00:55;;;;;;;4.45;2.60;;;;;;;5.40;100.00;99364.81;5031360;28;20199;-68
2023/12/13 05:03:26;;;;;;;3.20;2.45;;;;;;;5.38;100.00;99371.38;5026762;28;20200;-66
2023/12/13 05:05:55;;;;;;;5.40;2.95;;;;;;;5.28;100.00;99366.44;5018512;28;20321;-67
2023/12/13 05:08:24;;;;;;;6.78;2.80;;;;;;;5.27;100.00;99359.44;5031267;28;20188;-66
2023/12/13 05:10:54;;;;;;;4.22;3.33;;;;;;;5.37;100.00;99356.34;5031216;28;20185;-68
2023/12/13 05:13:23;;;;;;;4.70;4.30;;;;;;;5.27;100.00;99345.19;5025884;28;20190;-68
2023/12/13 05:15:52;;;;;;;2.92;1.70;;;;;;;5.20;100.00;99342.50;5036339;28;20210;-67
2023/12/13 05:18:21;;;;;;;4.00;3.03;;;;;;;5.15;100.00;99343.13;5027663;28;20240;-66
2023/12/13 05:20:50;;;;;;;4.32;4.00;;;;;;;5.17;100.00;99342.91;5025389;28;20201;-67
2023/12/13 05:23:19;;;;;;;2.65;2.45;;;;;;;5.27;100.00;99337.16;5046956;28;20264;-68
2023/12/13 05:25:48;;;;;;;4.53;2.45;;;;;;;5.31;100.00;99333.84;5033945;28;20217;-67
2023/12/13 05:28:18;;;;;;;3.55;3.35;;;;;;;5.27;100.00;99337.16;5032555;28;20626;-67
2023/12/13 05:30:47;;;;;;;3.78;3.13;;;;;;;5.28;100.00;99336.94;5037611;28;20268;-68
2023/12/13 05:33:16;;;;;;;3.60;3.40;;;;;;;5.22;100.00;99329.72;5024238;28;20218;-67
2023/12/13 05:35:45;;;;;;;3.40;3.10;;;;;;;5.27;100.00;99331.78;5027454;28;20300;-67
2023/12/13 05:38:14;;;;;;;4.03;2.97;;;;;;;5.23;100.00;99332.19;5033681;28;20204;-67
2023/12/13 05:40:43;;;;;;;10.13;6.20;;;;;;;5.17;100.00;99332.19;5017608;28;20221;-68
2023/12/13 05:43:12;;;;;;;4.13;3.83;;;;;;;5.19;100.00;99327.44;5023805;28;20197;-65
2023/12/13 05:45:42;;;;;;;3.40;3.20;;;;;;;5.15;100.00;99324.34;5033324;28;20308;-68
2023/12/13 05:48:12;;;;;;;6.50;3.53;;;;;;;5.19;100.00;99330.13;5016353;28;20670;-66
2023/12/13 05:50:41;;;;;;;4.90;3.92;;;;;;;5.23;100.00;99328.66;5022134;28;20216;-68
2023/12/13 05:53:10;;;;;;;10.23;6.60;;;;;;;5.27;100.00;99337.97;5021880;28;20197;-67
2023/12/13 05:55:39;;;;;;;7.18;4.68;;;;;;;5.20;100.00;99334.47;5021851;28;20221;-65
2023/12/13 05:58:08;;;;;;;5.40;4.13;;;;;;;5.23;100.00;99329.50;5017558;28;20197;-67
2023/12/13 06:00:37;;;;;;;3.45;3.25;;;;;;;5.25;100.00;99330.13;5018893;28;20300;-67
2023/12/13 06:03:07;;;;;;;7.85;3.10;;;;;;;5.29;100.00;99332.38;5029193;28;20666;-67
2023/12/13 06:05:36;;;;;;;6.90;2.83;;;;;;;5.36;100.00;99326.00;5025133;28;20641;-66
2023/12/13 06:08:05;;;;;;;5.80;5.30;;;;;;;5.35;100.00;99332.41;5036459;28;20181;-67
2023/12/13 06:10:34;;;;;;;9.00;5.30;;;;;;;5.33;100.00;99330.94;5031443;28;20221;-66
2023/12/13 06:13:03;;;;;;;3.95;2.78;;;;;;;5.34;100.00;99335.28;5020290;28;20689;-67
2023/12/13 06:15:32;;;;;;;7.65;3.95;;;;;;;5.31;100.00;99333.84;5030240;28;20268;-67
2023/12/13 06:18:01;;;;;;;4.53;2.50;;;;;;;5.39;100.00;99327.44;5028298;28;20201;-66
2023/12/13 06:20:31;;;;;;;8.60;4.70;;;;;;;5.42;100.00;99341.25;5029965;28;20608;-67
2023/12/13 06:23:00;;;;;;;3.83;3.25;;;;;;;5.51;100.00;99334.69;5021049;28;20193;-67
2023/12/13 06:25:29;;;;;;;6.22;3.47;;;;;;;5.40;100.00;99329.94;5031372;28;20217;-67
2023/12/13 06:27:57;;;;;;;7.90;3.75;;;;;;;5.41;100.00;99334.25;5032830;28;20193;-66
2023/12/13 06:30:26;;;;;;;3.40;2.35;;;;;;;5.42;100.00;99338.56;5024651;28;20231;-66
2023/12/13 06:32:55;;;;;;;2.00;1.77;;;;;;;5.41;100.00;99330.75;5030877;28;20181;-67
2023/12/13 06:35:24;;;;;;;3.70;2.88;;;;;;;5.49;100.00;99331.38;5024284;28;20210;-67
2023/12/13 06:37:54;;;;;;;3.72;2.97;;;;;;;5.39;100.00;99330.94;5031820;28;20216;-68
2023/12/13 06:40:24;;;;;;;4.10;3.60;;;;;;;5.40;100.00;99327.25;5025168;28;20202;-67
2023/12/13 06:42:53;;;;;;;6.85;4.50;;;;;;;5.34;100.00;99332.59;5025712;28;20200;-68
2023/12/13 06:45:22;;;;;;;4.80;3.83;;;;;;;5.42;100.00;99333.22;5016494;28;20210;-66
2023/12/13 06:47:51;;;;;;;4.05;3.75;;;;;;;5.48;100.00;99331.56;5028560;28;20279;-66
2023/12/13 06:50:50;;;;;;;6.43;5.82;;;;;;;5.47;100.00;99325.38;5024538;28;20209;-66
2023/12/13 06:53:21;;;;;;;3.78;3.47;;;;;;;5.45;100.00;99338.19;5019982;28;20260;-66
2023/12/13 06:55:50;;;;;;;4.00;3.70;;;;;;;5.55;100.00;99325.19;5025301;28;20217;-65
2023/12/13 06:58:19;;;;;;;3.83;2.78;;;;;;;5.59;100.00;99326.41;5034251;28;20189;-65
2023/12/13 07:00:48;;;;;;;5.80;3.38;;;;;;;5.60;100.00;99327.22;5027790;28;20212;-67
2023/12/13 07:03:16;;;;;;;3.53;2.03;;;;;;;5.49;100.00;99326.00;5023579;28;20271;-66
2023/12/13 07:05:45;;;;;;;4.63;3.88;;;;;;;5.60;100.00;99327.22;5024467;28;20288;-67
2023/12/13 07:08:14;;;;;;;4.30;4.00;;;;;;;5.60;100.00;99329.91;5025392;28;20205;-68
2023/12/13 07:10:45;;;;;;;3.92;3.42;;;;;;;5.60;100.00;99328.06;5029699;28;20543;-66
2023/12/13 07:13:13;;;;;;;1.70;1.60;;;;;;;5.61;100.00;99329.72;5027255;28;20204;-67
2023/12/13 07:15:43;;;;;;;3.22;2.92;;;;;;;5.58;100.00;99337.34;5028176;28;20221;-67
2023/12/13 07:18:12;;;;;;;4.05;2.50;;;;;;;5.57;100.00;99336.50;5025296;28;20243;-67
2023/12/13 07:20:41;;;;;;;2.35;2.15;;;;;;;5.60;100.00;99336.13;5028649;28;20455;-66
2023/12/13 07:23:11;;;;;;;3.08;2.10;;;;;;;5.59;100.00;99336.31;5022028;28;20189;-66
2023/12/13 07:25:41;;;;;;;6.70;5.60;;;;;;;5.57;100.00;99333.81;5022592;28;20276;-67
2023/12/13 07:28:13;;;;;;;3.72;3.42;;;;;;;5.57;100.00;99339.19;5025892;28;20229;-67
2023/12/13 07:30:42;;;;;;;2.50;1.85;;;;;;;5.54;100.00;99341.47;5025984;28;20602;-66
2023/12/13 07:33:30;;;;;;;4.03;3.55;;;;;;;5.50;100.00;99338.38;5025909;28;20292;-67
2023/12/13 07:35:58;;;;;;;3.20;2.90;;;;;;;5.55;100.00;99352.00;5027601;28;20217;-67
2023/12/13 07:38:28;;;;;;;4.53;4.13;;;;;;;5.68;100.00;99352.00;5031585;28;20724;-67
2023/12/13 07:40:57;;;;;;;6.45;4.55;;;;;;;5.73;100.00;99346.00;5025660;28;20206;-67
2023/12/13 07:43:28;;;;;;;5.72;4.78;;;;;;;5.75;100.00;99345.81;5022860;28;20556;-67
2023/12/13 07:45:57;;;;;;;2.67;2.33;;;;;;;5.72;100.00;99340.81;5017970;28;20274;-67
2023/12/13 07:48:26;;;;;;;6.15;2.85;;;;;;;5.78;100.00;99351.56;5026842;28;20193;-67
2023/12/13 07:50:59;;;;;;;6.53;4.72;;;;;;;5.71;100.00;99355.31;5020900;28;20196;-67
2023/12/13 07:53:28;;;;;;;5.10;4.68;;;;;;;5.80;100.00;99359.41;5028497;28;20197;-67
2023/12/13 07:55:57;;;;;;;6.82;3.63;;;;;;;5.90;100.00;99354.47;5032113;28;20247;-67
2023/12/13 07:58:27;;;;;;;4.80;4.50;;;;;;;5.82;100.00;99360.03;5029908;28;20213;-66
2023/12/13 08:00:56;;;;;;;3.03;2.45;;;;;;;5.89;100.00;99359.03;5028668;28;20213;-67
2023/12/13 08:03:25;;;;;;;6.30;4.10;;;;;;;6.00;100.00;99355.69;5026217;28;20978;-66
2023/12/13 08:05:54;;;;;;;8.32;6.10;;;;;;;6.00;100.00;99361.03;5032861;28;20704;-67
2023/12/13 08:08:23;;;;;;;3.28;2.97;;;;;;;5.91;100.00;99356.09;5032430;28;20197;-67
2023/12/13 08:10:57;;;;;;;4.30;3.38;;;;;;;5.85;100.00;99352.41;5049470;28;20645;-67
2023/12/13 08:13:27;;;;;;;3.03;2.67;;;;;;;5.97;100.00;99353.41;5026591;28;20279;-65
2023/12/13 08:15:57;;;;;;;2.72;2.50;;;;;;;5.94;100.00;99353.84;5032140;28;20236;-67
2023/12/13 08:18:25;;;;;;;3.60;2.58;;;;;;;6.06;100.00;99356.69;5031710;28;20213;-66
2023/12/13 08:20:54;;;;;;;5.25;3.65;;;;;;;6.08;100.00;99357.31;5026810;28;20260;-66
2023/12/13 08:23:23;;;;;;;4.13;3.67;;;;;;;6.04;100.00;99356.09;5029960;28;20207;-67
2023/12/13 08:25:52;;;;;;;5.38;3.20;;;;;;;6.00;100.00;99360.25;5029297;28;20602;-67
2023/12/13 08:28:21;;;;;;;2.25;2.05;;;;;;;6.13;100.00;99354.84;5030875;28;20681;-66
2023/12/13 08:30:51;;;;;;;5.32;2.97;;;;;;;6.18;100.00;99355.03;5026089;28;20189;-67
2023/12/13 08:33:21;;;;;;;12.20;7.43;;;;;;;6.00;100.00;99354.88;5025392;28;20217;-68
2023/12/13 08:35:50;;;;;;;6.72;4.90;;;;;;;5.87;100.00;99358.41;5029518;28;20304;-67
2023/12/13 08:38:19;;;;;;;7.57;4.93;;;;;;;6.04;100.00;99361.47;5033669;28;20198;-67
2023/12/13 08:40:48;;;;;;;6.28;3.60;;;;;;;6.11;100.00;99370.31;5027614;28;20698;-67
2023/12/13 08:43:17;;;;;;;5.63;3.25;;;;;;;6.02;100.00;99363.53;5032917;28;20999;-66
2023/12/13 08:45:46;;;;;;;6.45;5.28;;;;;;;6.07;100.00;99371.78;5031887;28;20209;-66
2023/12/13 08:48:16;;;;;;;7.93;4.50;;;;;;;6.01;100.00;99372.63;5027930;28;20189;-67
2023/12/13 08:50:46;;;;;;;5.57;4.82;;;;;;;5.99;100.00;99369.34;5027717;28;20699;-67
2023/12/13 08:53:15;;;;;;;6.25;4.38;;;;;;;6.06;100.00;99378.19;5036912;28;20204;-67
2023/12/13 08:55:44;;;;;;;5.90;5.00;;;;;;;6.09;100.00;99369.72;5026602;28;20556;-65
2023/12/13 08:58:13;;;;;;;5.80;4.00;;;;;;;6.09;100.00;99369.72;5031581;28;20189;-65
2023/12/13 09:00:42;;;;;;;3.58;3.28;;;;;;;6.09;100.00;99375.09;5029212;28;20209;-67
2023/12/13 09:03:11;;;;;;;3.45;3.22;;;;;;;6.10;100.00;99365.97;5029136;28;20197;-67
2023/12/13 09:05:42;;;;;;;4.20;3.88;;;;;;;6.08;100.00;99368.91;5032533;28;20217;-68
2023/12/13 09:08:11;;;;;;;6.70;6.13;;;;;;;6.13;100.00;99365.59;5028427;28;20603;-67
2023/12/13 09:10:40;;;;;;;10.48;5.75;;;;;;;6.05;100.00;99366.63;5029529;28;20553;-66
2023/12/13 09:13:08;;;;;;;12.70;6.05;;;;;;;5.98;100.00;99367.69;5033875;28;20197;-67
2023/12/13 09:15:37;;;;;;;5.82;4.80;;;;;;;6.11;100.00;99375.69;5029698;28;20245;-66
2023/12/13 09:18:06;;;;;;;5.20;4.38;;;;;;;6.12;100.00;99374.66;5026381;28;20190;-67
2023/12/13 09:20:35;;;;;;;7.13;6.25;;;;;;;6.19;100.00;99380.03;5030076;28;20262;-66
2023/12/13 09:23:06;;;;;;;10.55;4.68;;;;;;;6.17;100.00;99382.91;5030069;28;20212;-67
2023/12/13 09:25:35;;;;;;;4.78;4.40;;;;;;;6.09;100.00;99381.28;5031999;28;20209;-66
2023/12/13 09:28:04;;;;;;;4.90;3.88;;;;;;;6.01;100.00;99383.34;5025874;28;20199;-67
2023/12/13 09:30:34;;;;;;;7.20;4.50;;;;;;;5.96;100.00;99381.31;5024946;28;20733;-66
2023/12/13 09:33:03;;;;;;;6.05;4.05;;;;;;;5.97;100.00;99377.59;5030802;28;20193;-66
2023/12/13 09:35:32;;;;;;;10.90;4.30;;;;;;;5.91;100.00;99389.16;5029251;28;20220;-67
2023/12/13 09:38:01;;;;;;;15.60;7.20;;;;;;;6.07;100.00;99385.22;5029836;28;20190;-67
2023/12/13 09:40:32;;;;;;;7.20;4.75;;;;;;;5.87;100.00;99384.41;5038189;28;20189;-66
2023/12/13 09:43:02;;;;;;;7.57;6.90;;;;;;;5.82;100.00;99390.38;5027068;28;20285;-66
2023/12/13 09:45:32;;;;;;;8.20;6.22;;;;;;;5.74;100.00;99387.09;5032574;28;20594;-66
2023/12/13 09:48:02;;;;;;;4.00;3.65;;;;;;;5.84;100.00;99382.13;5026333;28;20712;-67
2023/12/13 09:50:35;;;;;;;7.82;5.95;;;;;;;5.92;100.00;99385.44;5026143;28;20197;-68
2023/12/13 09:53:27;;;;;;;8.82;6.28;;;;;;;5.89;100.00;99391.25;5025614;28;20266;-67
2023/12/13 09:55:58;;;;;;;6.55;5.90;;;;;;;5.90;100.00;99394.75;5028052;28;20225;-66
2023/12/13 09:58:27;;;;;;;6.93;6.13;;;;;;;5.91;100.00;99394.53;5021095;28;20208;-67
2023/12/13 10:00:57;;;;;;;11.10;5.22;;;;;;;5.97;100.00;99390.19;5032596;28;20654;-65
2023/12/13 10:03:26;;;;;;;7.75;6.10;;;;;;;6.02;100.00;99388.53;5027465;28;20662;-66
2023/12/13 10:05:59;;;;;;;6.15;4.25;;;;;;;5.99;100.00;99385.44;5032885;28;20225;-66
2023/12/13 10:08:28;;;;;;;5.88;2.70;;;;;;;6.04;100.00;99386.47;5025407;28;20855;-65
2023/12/13 10:10:58;;;;;;;11.60;6.15;;;;;;;6.08;100.00;99387.69;5040072;28;20201;-66
2023/12/13 10:13:27;;;;;;;12.38;7.10;;;;;;;6.06;100.00;99386.25;5038108;28;20563;-66
2023/12/13 10:15:56;;;;;;;12.85;10.40;;;;;;;6.08;100.00;99381.50;5028940;28;20583;-66
2023/12/13 10:18:25;;;;;;;9.20;5.43;;;;;;;6.21;100.00;99378.78;5029751;28;20190;-66
2023/12/13 10:20:54;;;;;;;6.18;4.88;;;;;;;6.14;100.00;99375.28;5029562;28;20571;-68
2023/12/13 10:23:22;;;;;;;8.57;7.22;;;;;;;6.13;100.00;99379.00;5025597;28;20193;-67
2023/12/13 10:25:52;;;;;;;11.60;7.72;;;;;;;5.96;100.00;99370.56;5029580;28;20205;-67
2023/12/13 10:28:22;;;;;;;6.35;5.03;;;;;;;5.97;100.00;99368.69;5035683;28;20225;-67
2023/12/13 10:30:52;;;;;;;6.32;3.50;;;;;;;5.95;100.00;99373.47;5025692;28;20248;-67
2023/12/13 10:33:20;;;;;;;13.52;7.30;;;;;;;5.90;100.00;99373.28;5032641;28;20238;-68
2023/12/13 10:35:53;;;;;;;6.50;6.03;;;;;;;5.94;100.00;99369.13;5028970;28;20217;-66
2023/12/13 10:38:25;;;;;;;8.18;5.55;;;;;;;5.97;100.00;99363.34;5028324;28;20189;-66
2023/12/13 10:40:54;;;;;;;3.35;2.88;;;;;;;5.98;100.00;99370.34;5028070;28;20190;-68
2023/12/13 10:43:25;;;;;;;5.75;4.40;;;;;;;5.94;100.00;99366.44;5027746;28;20216;-68
2023/12/13 10:45:59;;;;;;;6.18;5.57;;;;;;;5.92;100.00;99363.13;5025444;28;20265;-68
2023/12/13 10:48:33;;;;;;;5.50;4.82;;;;;;;5.88;100.00;99361.91;5024626;28;20188;-67
2023/12/13 10:51:03;;;;;;;6.32;5.45;;;;;;;5.83;100.00;99369.72;5029009;28;20414;-69
2023/12/13 10:53:34;;;;;;;11.45;6.45;;;;;;;5.86;100.00;99372.81;5030602;28;20213;-66
2023/12/13 10:56:04;;;;;;;8.88;5.55;;;;;;;5.79;100.00;99368.50;5026029;28;20217;-68
2023/12/13 10:58:36;;;;;;;9.00;4.93;;;;;;;5.80;100.00;99370.97;5035554;28;20248;-67
2023/12/13 11:01:07;;;;;;;10.70;6.80;;;;;;;5.83;100.00;99369.72;5024119;28;20190;-69
2023/12/13 11:03:41;;;;;;;5.03;4.38;;;;;;;5.90;100.00;99357.16;5029368;28;20260;-68
2023/12/13 11:06:14;;;;;;;5.07;4.15;;;;;;;5.82;100.00;99370.75;5024211;28;20220;-68
2023/12/13 11:08:44;;;;;;;5.18;4.47;;;;;;;5.78;100.00;99366.84;5026519;28;20229;-64
2023/12/13 11:11:14;;;;;;;7.07;4.43;;;;;;;5.81;100.00;99366.44;5024206;28;20568;-67
2023/12/13 11:13:51;;;;;;;3.88;3.58;;;;;;;5.84;100.00;99372.22;5033411;28;20201;-68
2023/12/13 11:16:22;;;;;;;4.40;3.35;;;;;;;5.89;100.00;99368.94;5022476;28;20190;-68
2023/12/13 11:18:53;;;;;;;6.60;6.10;;;;;;;6.03;100.00;99376.75;5025340;28;20190;-66
2023/12/13 11:21:26;;;;;;;10.95;7.40;;;;;;;5.88;100.00;99375.34;5014628;28;20212;-67
2023/12/13 11:23:57;;;;;;;9.70;4.32;;;;;;;5.86;100.00;99369.31;5028767;28;20220;-66
2023/12/13 11:26:28;;;;;;;6.03;4.35;;;;;;;5.92;100.00;99369.34;5022867;28;20190;-68
2023/12/13 11:29:00;;;;;;;3.83;3.10;;;;;;;5.84;100.00;99371.38;5024764;28;20208;-68
2023/12/13 11:31:30;;;;;;;5.05;4.63;;;;;;;5.90;100.00;99365.22;5029940;28;20200;-68
2023/12/13 11:33:59;;;;;;;11.38;4.57;;;;;;;5.88;100.00;99369.97;5028337;28;20247;-68
2023/12/13 11:36:29;;;;;;;4.53;3.55;;;;;;;5.90;100.00;99375.97;5028822;28;20196;-67
2023/12/13 11:38:59;;;;;;;5.00;4.30;;;;;;;5.96;100.00;99375.09;5026486;28;20190;-68
2023/12/13 11:41:28;;;;;;;7.45;5.90;;;;;;;6.01;100.00;99383.34;5031853;28;20189;-67
2023/12/13 11:43:59;;;;;;;5.93;4.75;;;;;;;6.10;100.00;99384.78;5032236;28;20604;-66